sensor_id;sensor_type;location;lat;lon;timestamp;pressure;altitude;pressure_sealevel;temperature;humidity
24013;BME280;12220;50.194;18.948;2023-05-09T00:01:12;102935.01;;;7.32;59.83
24013;BME280;12220;50.194;18.948;2023-05-09T00:03:18;102937.77;;;7.30;59.81
24013;BME280;12220;50.194;18.948;2023-05-09T00:05:20;102939.63;;;7.28;59.87
24013;BME280;12220;50.194;18.948;2023-05-09T00:07:21;102934.22;;;7.27;59.95
24013;BME280;12220;50.194;18.948;2023-05-09T00:09:24;102936.98;;;7.25;59.99
24013;BME280;12220;50.194;18.948;2023-05-09T00:11:33;102923.39;;;7.24;60.01
24013;BME280;12220;50.194;18.948;2023-05-09T00:13:34;102929.73;;;7.24;60.04
24013;BME280;12220;50.194;18.948;2023-05-09T00:15:38;102935.24;;;7.21;60.02
24013;BME280;12220;50.194;18.948;2023-05-09T00:17:40;102935.31;;;7.18;60.06
24013;BME280;12220;50.194;18.948;2023-05-09T00:19:49;102936.27;;;7.15;60.07
24013;BME280;12220;50.194;18.948;2023-05-09T00:21:51;102937.22;;;7.13;60.12
24013;BME280;12220;50.194;18.948;2023-05-09T00:23:52;102931.77;;;7.13;60.17
24013;BME280;12220;50.194;18.948;2023-05-09T00:25:53;102933.64;;;7.11;60.21
24013;BME280;12220;50.194;18.948;2023-05-09T00:28:03;102936.40;;;7.09;60.23
24013;BME280;12220;50.194;18.948;2023-05-09T00:30:08;102925.57;;;7.06;60.29
24013;BME280;12220;50.194;18.948;2023-05-09T00:32:10;102926.47;;;7.07;60.36
24013;BME280;12220;50.194;18.948;2023-05-09T00:34:11;102921.07;;;7.04;60.36
24013;BME280;12220;50.194;18.948;2023-05-09T00:36:18;102914.71;;;7.03;60.39
24013;BME280;12220;50.194;18.948;2023-05-09T00:38:22;102912.96;;;7.01;60.41
24013;BME280;12220;50.194;18.948;2023-05-09T00:40:24;102919.34;;;7.00;60.48
24013;BME280;12220;50.194;18.948;2023-05-09T00:42:26;102913.02;;;6.97;60.60
24013;BME280;12220;50.194;18.948;2023-05-09T00:44:33;102908.53;;;6.95;60.62
24013;BME280;12220;50.194;18.948;2023-05-09T00:46:35;102915.80;;;6.94;60.62
24013;BME280;12220;50.194;18.948;2023-05-09T00:48:36;102908.63;;;6.90;60.68
24013;BME280;12220;50.194;18.948;2023-05-09T00:50:38;102905.03;;;6.88;60.76
24013;BME280;12220;50.194;18.948;2023-05-09T00:52:49;102902.37;;;6.85;60.77
24013;BME280;12220;50.194;18.948;2023-05-09T00:54:52;102904.27;;;6.82;60.80
24013;BME280;12220;50.194;18.948;2023-05-09T00:56:53;102906.10;;;6.79;60.89
24013;BME280;12220;50.194;18.948;2023-05-09T00:58:55;102899.84;;;6.76;60.92
24013;BME280;12220;50.194;18.948;2023-05-09T01:01:03;102889.89;;;6.73;60.97
24013;BME280;12220;50.194;18.948;2023-05-09T01:03:05;102892.71;;;6.69;61.05
24013;BME280;12220;50.194;18.948;2023-05-09T01:05:07;102896.42;;;6.65;61.12
24013;BME280;12220;50.194;18.948;2023-05-09T01:16:37;102893.88;;;6.54;61.37
24013;BME280;12220;50.194;18.948;2023-05-09T01:18:51;102889.41;;;6.51;61.41
24013;BME280;12220;50.194;18.948;2023-05-09T01:21:10;102892.16;;;6.50;61.49
24013;BME280;12220;50.194;18.948;2023-05-09T01:30:02;102891.34;;;6.44;61.68
24013;BME280;12220;50.194;18.948;2023-05-09T01:32:10;102895.90;;;6.44;61.71
24013;BME280;12220;50.194;18.948;2023-05-09T01:34:17;102886.81;;;6.43;61.67
24013;BME280;12220;50.194;18.948;2023-05-09T01:36:20;102888.71;;;6.40;61.74
24013;BME280;12220;50.194;18.948;2023-05-09T01:38:24;102886.94;;;6.37;61.75
24013;BME280;12220;50.194;18.948;2023-05-09T01:40:29;102890.60;;;6.35;61.82
24013;BME280;12220;50.194;18.948;2023-05-09T01:42:39;102881.62;;;6.31;61.88
24013;BME280;12220;50.194;18.948;2023-05-09T01:44:53;102891.62;;;6.31;61.96
24013;BME280;12220;50.194;18.948;2023-05-09T01:46:55;102883.44;;;6.29;62.01
24013;BME280;12220;50.194;18.948;2023-05-09T01:48:58;102883.47;;;6.27;62.05
24013;BME280;12220;50.194;18.948;2023-05-09T01:51:01;102876.24;;;6.26;62.08
24013;BME280;12220;50.194;18.948;2023-05-09T01:53:09;102886.22;;;6.26;62.08
24013;BME280;12220;50.194;18.948;2023-05-09T01:55:14;102879.02;;;6.25;62.15
24013;BME280;12220;50.194;18.948;2023-05-09T01:57:17;102869.05;;;6.24;62.13
24013;BME280;12220;50.194;18.948;2023-05-09T01:59:20;102877.23;;;6.22;62.13
24013;BME280;12220;50.194;18.948;2023-05-09T02:01:23;102875.45;;;6.20;62.15
24013;BME280;12220;50.194;18.948;2023-05-09T02:03:24;102878.20;;;6.18;62.19
24013;BME280;12220;50.194;18.948;2023-05-09T02:05:27;102873.68;;;6.17;62.26
24013;BME280;12220;50.194;18.948;2023-05-09T02:07:30;102876.49;;;6.13;62.31
24013;BME280;12220;50.194;18.948;2023-05-09T02:09:37;102875.65;;;6.09;62.33
24013;BME280;12220;50.194;18.948;2023-05-09T02:11:39;102868.47;;;6.05;62.47
24013;BME280;12220;50.194;18.948;2023-05-09T02:13:40;102869.38;;;6.04;62.54
24013;BME280;12220;50.194;18.948;2023-05-09T02:15:42;102873.94;;;6.03;62.60
24013;BME280;12220;50.194;18.948;2023-05-09T02:17:52;102873.02;;;6.04;62.66
24013;BME280;12220;50.194;18.948;2023-05-09T02:19:54;102872.07;;;6.05;62.69
24013;BME280;12220;50.194;18.948;2023-05-09T02:21:55;102873.90;;;6.05;62.67
24013;BME280;12220;50.194;18.948;2023-05-09T02:23:57;102864.86;;;6.04;62.67
24013;BME280;12220;50.194;18.948;2023-05-09T02:26:07;102871.24;;;6.02;62.64
24013;BME280;12220;50.194;18.948;2023-05-09T02:28:09;102856.77;;;5.98;62.54
24013;BME280;12220;50.194;18.948;2023-05-09T02:30:18;102866.77;;;5.98;62.74
24013;BME280;12220;50.194;18.948;2023-05-09T02:32:28;102871.30;;;5.94;62.75
24013;BME280;12220;50.194;18.948;2023-05-09T02:34:31;102865.93;;;5.91;62.79
24013;BME280;12220;50.194;18.948;2023-05-09T02:36:33;102867.82;;;5.87;62.82
24013;BME280;12220;50.194;18.948;2023-05-09T02:38:35;102869.69;;;5.82;62.89
24013;BME280;12220;50.194;18.948;2023-05-09T02:40:38;102872.48;;;5.79;62.97
24013;BME280;12220;50.194;18.948;2023-05-09T02:42:40;102860.76;;;5.75;63.05
24013;BME280;12220;50.194;18.948;2023-05-09T02:44:41;102861.67;;;5.74;63.15
24013;BME280;12220;50.194;18.948;2023-05-09T02:46:43;102627.47;;;4.37;63.10
24013;BME280;12220;50.194;18.948;2023-05-09T02:48:44;102863.50;;;5.74;63.15
24013;BME280;12220;50.194;18.948;2023-05-09T02:50:55;102858.09;;;5.72;63.19
24013;BME280;12220;50.194;18.948;2023-05-09T02:52:58;102861.73;;;5.71;63.23
24013;BME280;12220;50.194;18.948;2023-05-09T02:54:59;102864.44;;;5.71;63.28
24013;BME280;12220;50.194;18.948;2023-05-09T02:57:03;102860.84;;;5.71;63.30
24013;BME280;12220;50.194;18.948;2023-05-09T02:59:10;102864.48;;;5.70;63.30
24013;BME280;12220;50.194;18.948;2023-05-09T03:01:12;102867.23;;;5.67;63.30
24013;BME280;12220;50.194;18.948;2023-05-09T03:03:13;102861.85;;;5.64;63.35
24013;BME280;12220;50.194;18.948;2023-05-09T03:05:15;102866.42;;;5.60;63.37
24013;BME280;12220;50.194;18.948;2023-05-09T03:07:25;102869.16;;;5.58;63.44
24013;BME280;12220;50.194;18.948;2023-05-09T03:09:27;102862.89;;;5.55;63.50
24013;BME280;12220;50.194;18.948;2023-05-09T03:11:28;102866.55;;;5.52;63.55
24013;BME280;12220;50.194;18.948;2023-05-09T03:13:30;102866.63;;;5.48;63.62
24013;BME280;12220;50.194;18.948;2023-05-09T03:15:40;102856.69;;;5.45;63.68
24013;BME280;12220;50.194;18.948;2023-05-09T03:17:42;102861.26;;;5.41;63.84
24013;BME280;12220;50.194;18.948;2023-05-09T03:19:43;102859.53;;;5.37;63.88
24013;BME280;12220;50.194;18.948;2023-05-09T03:21:45;102865.89;;;5.35;63.98
24013;BME280;12220;50.194;18.948;2023-05-09T03:23:55;102867.73;;;5.33;64.13
24013;BME280;12220;50.194;18.948;2023-05-09T03:25:57;102867.79;;;5.28;64.28
24013;BME280;12220;50.194;18.948;2023-05-09T03:28:01;102867.79;;;5.28;64.26
24013;BME280;12220;50.194;18.948;2023-05-09T03:30:03;102866.00;;;5.26;64.37
24013;BME280;12220;50.194;18.948;2023-05-09T03:32:10;102859.68;;;5.25;64.47
24013;BME280;12220;50.194;18.948;2023-05-09T03:34:12;102851.55;;;5.23;64.70
24013;BME280;12220;50.194;18.948;2023-05-09T03:36:15;102859.68;;;5.25;64.59
24013;BME280;12220;50.194;18.948;2023-05-09T03:38:17;102856.08;;;5.24;64.62
24013;BME280;12220;50.194;18.948;2023-05-09T03:40:29;102858.83;;;5.23;64.72
24013;BME280;12220;50.194;18.948;2023-05-09T03:42:33;102859.73;;;5.22;64.85
24013;BME280;12220;50.194;18.948;2023-05-09T03:44:34;102858.88;;;5.20;64.98
24013;BME280;12220;50.194;18.948;2023-05-09T03:46:35;102860.66;;;5.19;65.04
24013;BME280;12220;50.194;18.948;2023-05-09T03:48:41;102855.23;;;5.19;65.09
24013;BME280;12220;50.194;18.948;2023-05-09T03:50:42;102855.23;;;5.19;65.11
24013;BME280;12220;50.194;18.948;2023-05-09T03:52:43;102861.59;;;5.20;65.19
24013;BME280;12220;50.194;18.948;2023-05-09T03:54:45;102851.59;;;5.22;65.23
24013;BME280;12220;50.194;18.948;2023-05-09T03:56:56;102857.88;;;5.24;65.26
24013;BME280;12220;50.194;18.948;2023-05-09T03:58:57;102856.98;;;5.23;65.30
24013;BME280;12220;50.194;18.948;2023-05-09T04:00:59;102854.26;;;5.23;65.36
24013;BME280;12220;50.194;18.948;2023-05-09T04:03:05;102865.09;;;5.27;65.40
24013;BME280;12220;50.194;18.948;2023-05-09T04:05:11;102864.16;;;5.29;65.43
24013;BME280;12220;50.194;18.948;2023-05-09T04:07:12;102867.73;;;5.31;65.51
24013;BME280;12220;50.194;18.948;2023-05-09T04:09:14;102864.98;;;5.34;65.53
24013;BME280;12220;50.194;18.948;2023-05-09T04:11:18;102862.27;;;5.36;65.53
24013;BME280;12220;50.194;18.948;2023-05-09T04:13:26;102861.33;;;5.37;65.50
24013;BME280;12220;50.194;18.948;2023-05-09T04:15:31;102856.81;;;5.37;65.60
24013;BME280;12220;50.194;18.948;2023-05-09T04:17:32;102857.64;;;5.41;65.63
24013;BME280;12220;50.194;18.948;2023-05-09T04:19:33;102866.67;;;5.45;65.65
24013;BME280;12220;50.194;18.948;2023-05-09T04:21:41;102856.66;;;5.47;65.67
24013;BME280;12220;50.194;18.948;2023-05-09T04:23:43;102856.69;;;5.45;65.72
24013;BME280;12220;50.194;18.948;2023-05-09T04:25:44;102863.00;;;5.46;65.94
24013;BME280;12220;50.194;18.948;2023-05-09T04:27:46;102858.50;;;5.46;66.01
24013;BME280;12220;50.194;18.948;2023-05-09T04:29:56;102860.25;;;5.47;66.28
24013;BME280;12220;50.194;18.948;2023-05-09T04:32:01;102860.24;;;5.49;66.40
24013;BME280;12220;50.194;18.948;2023-05-09T04:34:03;102857.48;;;5.53;66.48
24013;BME280;12220;50.194;18.948;2023-05-09T04:36:05;102862.87;;;5.56;67.03
24013;BME280;12220;50.194;18.948;2023-05-09T04:38:11;102856.45;;;5.62;66.96
24013;BME280;12220;50.194;18.948;2023-05-09T04:40:13;102853.67;;;5.65;67.18
24013;BME280;12220;50.194;18.948;2023-05-09T04:42:14;102852.69;;;5.71;67.32
24013;BME280;12220;50.194;18.948;2023-05-09T04:44:16;102859.79;;;5.78;67.55
24013;BME280;12220;50.194;18.948;2023-05-09T04:46:26;102837.96;;;5.84;67.59
24013;BME280;12220;50.194;18.948;2023-05-09T04:48:28;102836.94;;;5.91;67.58
24013;BME280;12220;50.194;18.948;2023-05-09T04:50:29;102841.37;;;5.99;67.70
24013;BME280;12220;50.194;18.948;2023-05-09T04:52:31;102834.91;;;6.06;67.81
24013;BME280;12220;50.194;18.948;2023-05-09T04:54:42;102842.90;;;6.15;67.85
24013;BME280;12220;50.194;18.948;2023-05-09T04:56:43;102833.73;;;6.21;69.46
24013;BME280;12220;50.194;18.948;2023-05-09T04:58:48;102838.95;;;6.32;68.66
24013;BME280;12220;50.194;18.948;2023-05-09T05:00:49;102836.15;;;6.38;69.98
24013;BME280;12220;50.194;18.948;2023-05-09T05:02:57;102835.84;;;6.53;69.10
24013;BME280;12220;50.194;18.948;2023-05-09T05:04:58;102843.80;;;6.62;69.48
24013;BME280;12220;50.194;18.948;2023-05-09T05:06:59;102844.53;;;6.72;69.07
24013;BME280;12220;50.194;18.948;2023-05-09T05:09:01;102831.66;;;6.80;68.78
24013;BME280;12220;50.194;18.948;2023-05-09T05:11:12;102837.82;;;6.90;68.85
24013;BME280;12220;50.194;18.948;2023-05-09T05:13:14;102832.20;;;6.98;68.74
24013;BME280;12220;50.194;18.948;2023-05-09T05:15:15;102823.81;;;7.07;68.90
24013;BME280;12220;50.194;18.948;2023-05-09T05:17:19;102823.59;;;7.18;68.50
24013;BME280;12220;50.194;18.948;2023-05-09T05:19:27;102826.99;;;7.28;68.48
24013;BME280;12220;50.194;18.948;2023-05-09T05:21:31;102839.58;;;7.33;68.54
24013;BME280;12220;50.194;18.948;2023-05-09T05:23:32;102826.63;;;7.43;68.32
24013;BME280;12220;50.194;18.948;2023-05-09T05:25:34;102823.72;;;7.51;68.21
24013;BME280;12220;50.194;18.948;2023-05-09T05:27:42;102833.55;;;7.58;68.38
24013;BME280;12220;50.194;18.948;2023-05-09T05:29:43;102831.55;;;7.66;68.23
24013;BME280;12220;50.194;18.948;2023-05-09T05:31:44;102824.07;;;7.75;68.20
24013;BME280;12220;50.194;18.948;2023-05-09T05:33:46;102853.80;;;7.85;67.95
24013;BME280;12220;50.194;18.948;2023-05-09T05:35:57;102828.16;;;7.93;67.89
24013;BME280;12220;50.194;18.948;2023-05-09T05:37:58;102833.41;;;8.00;67.84
24013;BME280;12220;50.194;18.948;2023-05-09T05:40:00;102828.70;;;8.07;67.67
24013;BME280;12220;50.194;18.948;2023-05-09T05:42:01;102824.96;;;8.11;67.72
24013;BME280;12220;50.194;18.948;2023-05-09T05:44:12;102830.20;;;8.19;67.46
24013;BME280;12220;50.194;18.948;2023-05-09T05:46:13;102825.60;;;8.21;67.42
24013;BME280;12220;50.194;18.948;2023-05-09T05:48:16;102820.83;;;8.29;67.20
24013;BME280;12220;50.194;18.948;2023-05-09T05:50:17;102818.90;;;8.33;67.15
24013;BME280;12220;50.194;18.948;2023-05-09T05:52:27;102807.74;;;8.42;66.93
24013;BME280;12220;50.194;18.948;2023-05-09T05:54:31;102824.91;;;8.47;66.90
24013;BME280;12220;50.194;18.948;2023-05-09T05:56:33;102814.67;;;8.55;66.76
24013;BME280;12220;50.194;18.948;2023-05-09T05:58:34;102813.61;;;8.61;66.71
24013;BME280;12220;50.194;18.948;2023-05-09T06:00:42;102818.84;;;8.69;66.60
24013;BME280;12220;50.194;18.948;2023-05-09T06:02:44;102814.16;;;8.74;66.54
24013;BME280;12220;50.194;18.948;2023-05-09T06:04:50;102814.80;;;8.82;66.34
24013;BME280;12220;50.194;18.948;2023-05-09T06:06:51;102813.67;;;8.89;66.26
24013;BME280;12220;50.194;18.948;2023-05-09T06:08:57;102806.16;;;8.98;66.12
24013;BME280;12220;50.194;18.948;2023-05-09T06:11:00;102809.61;;;9.04;66.03
24013;BME280;12220;50.194;18.948;2023-05-09T06:13:01;102805.81;;;9.08;65.74
24013;BME280;12220;50.194;18.948;2023-05-09T06:15:03;102799.16;;;9.19;65.52
24013;BME280;12220;50.194;18.948;2023-05-09T06:17:12;102802.52;;;9.27;65.10
24013;BME280;12220;50.194;18.948;2023-05-09T06:19:14;102803.22;;;9.34;65.02
24013;BME280;12220;50.194;18.948;2023-05-09T06:21:15;102797.51;;;9.41;64.94
24013;BME280;12220;50.194;18.948;2023-05-09T06:23:16;102799.93;;;9.51;64.75
24013;BME280;12220;50.194;18.948;2023-05-09T06:25:27;102795.22;;;9.56;64.52
24013;BME280;12220;50.194;18.948;2023-05-09T06:27:28;102803.21;;;9.62;64.38
24013;BME280;12220;50.194;18.948;2023-05-09T06:29:30;102806.53;;;9.72;64.28
24013;BME280;12220;50.194;18.948;2023-05-09T06:31:32;102787.17;;;9.78;63.91
24013;BME280;12220;50.194;18.948;2023-05-09T06:33:42;102803.43;;;9.83;63.43
24013;BME280;12220;50.194;18.948;2023-05-09T06:35:44;102797.02;;;9.84;63.19
24013;BME280;12220;50.194;18.948;2023-05-09T06:37:48;102780.27;;;9.93;63.35
24013;BME280;12220;50.194;18.948;2023-05-09T06:39:49;102791.97;;;9.98;62.96
24013;BME280;12220;50.194;18.948;2023-05-09T06:42:00;102792.71;;;10.03;62.93
24013;BME280;12220;50.194;18.948;2023-05-09T06:44:01;102787.73;;;10.15;62.87
24013;BME280;12220;50.194;18.948;2023-05-09T06:46:02;102784.74;;;10.22;62.22
24013;BME280;12220;50.194;18.948;2023-05-09T06:48:04;102784.34;;;10.33;62.26
24013;BME280;12220;50.194;18.948;2023-05-09T06:50:12;102776.89;;;10.38;61.90
24013;BME280;12220;50.194;18.948;2023-05-09T06:52:14;102784.81;;;10.46;61.26
24013;BME280;12220;50.194;18.948;2023-05-09T06:54:17;102778.04;;;10.56;60.92
24013;BME280;12220;50.194;18.948;2023-05-09T06:56:18;102778.65;;;10.64;60.76
24013;BME280;12220;50.194;18.948;2023-05-09T06:58:27;102758.24;;;10.73;60.62
24013;BME280;12220;50.194;18.948;2023-05-09T07:00:29;102762.55;;;10.79;59.85
24013;BME280;12220;50.194;18.948;2023-05-09T07:02:30;102759.35;;;10.91;59.47
24013;BME280;12220;50.194;18.948;2023-05-09T07:04:32;102753.49;;;11.01;58.97
24013;BME280;12220;50.194;18.948;2023-05-09T07:06:42;102761.50;;;11.07;58.16
24013;BME280;12220;50.194;18.948;2023-05-09T07:08:44;102762.00;;;11.16;58.34
24013;BME280;12220;50.194;18.948;2023-05-09T07:10:46;102762.59;;;11.25;57.57
24013;BME280;12220;50.194;18.948;2023-05-09T07:12:47;102745.88;;;11.31;56.65
24013;BME280;12220;50.194;18.948;2023-05-09T07:14:57;102779.38;;;11.39;56.47
24013;BME280;12220;50.194;18.948;2023-05-09T07:16:59;102753.69;;;11.42;55.73
24013;BME280;12220;50.194;18.948;2023-05-09T07:19:00;102741.42;;;11.50;55.77
24013;BME280;12220;50.194;18.948;2023-05-09T07:21:05;102739.22;;;11.59;55.70
24013;BME280;12220;50.194;18.948;2023-05-09T07:23:12;102747.16;;;11.66;55.34
24013;BME280;12220;50.194;18.948;2023-05-09T07:25:14;102730.55;;;11.69;54.31
24013;BME280;12220;50.194;18.948;2023-05-09T07:27:16;102734.62;;;11.81;55.10
24013;BME280;12220;50.194;18.948;2023-05-09T07:29:17;102737.85;;;11.91;54.99
24013;BME280;12220;50.194;18.948;2023-05-09T07:31:39;102742.09;;;12.00;54.55
24013;BME280;12220;50.194;18.948;2023-05-09T07:33:49;102738.09;;;12.07;53.81
24013;BME280;12220;50.194;18.948;2023-05-09T07:35:50;102735.96;;;12.14;53.76
24013;BME280;12220;50.194;18.948;2023-05-09T07:37:52;102737.46;;;12.21;53.36
24013;BME280;12220;50.194;18.948;2023-05-09T07:39:54;102729.86;;;12.28;53.27
24013;BME280;12220;50.194;18.948;2023-05-09T07:42:04;102727.70;;;12.34;53.11
24013;BME280;12220;50.194;18.948;2023-05-09T07:44:07;102728.32;;;12.41;53.13
24013;BME280;12220;50.194;18.948;2023-05-09T07:46:09;102728.84;;;12.49;53.10
24013;BME280;12220;50.194;18.948;2023-05-09T07:48:10;102528.81;;;11.40;51.98
24013;BME280;12220;50.194;18.948;2023-05-09T07:50:19;102721.07;;;12.59;52.33
24013;BME280;12220;50.194;18.948;2023-05-09T07:52:20;102716.17;;;12.66;52.11
24013;BME280;12220;50.194;18.948;2023-05-09T07:54:22;102710.38;;;12.72;51.72
24013;BME280;12220;50.194;18.948;2023-05-09T07:56:23;102722.88;;;12.79;51.73
24013;BME280;12220;50.194;18.948;2023-05-09T07:58:34;102709.51;;;12.90;52.01
24013;BME280;12220;50.194;18.948;2023-05-09T08:00:35;102709.12;;;12.98;51.97
24013;BME280;12220;50.194;18.948;2023-05-09T08:02:36;102713.35;;;13.05;51.39
24013;BME280;12220;50.194;18.948;2023-05-09T08:04:38;102713.80;;;13.15;51.46
24013;BME280;12220;50.194;18.948;2023-05-09T08:06:49;102701.44;;;13.24;51.04
24013;BME280;12220;50.194;18.948;2023-05-09T08:08:50;102706.55;;;13.32;50.85
24013;BME280;12220;50.194;18.948;2023-05-09T08:10:51;102697.84;;;13.41;50.82
24013;BME280;12220;50.194;18.948;2023-05-09T08:12:54;102702.32;;;13.43;50.32
24013;BME280;12220;50.194;18.948;2023-05-09T08:15:04;102508.36;;;12.44;50.60
24013;BME280;12220;50.194;18.948;2023-05-09T08:17:06;102688.73;;;13.58;50.53
24013;BME280;12220;50.194;18.948;2023-05-09T08:19:07;102696.58;;;13.66;49.92
24013;BME280;12220;50.194;18.948;2023-05-09T08:21:08;102685.98;;;13.75;49.98
24013;BME280;12220;50.194;18.948;2023-05-09T08:23:18;102694.66;;;13.85;50.10
24013;BME280;12220;50.194;18.948;2023-05-09T08:25:20;102691.23;;;13.98;49.88
24013;BME280;12220;50.194;18.948;2023-05-09T08:27:21;102698.20;;;14.05;49.14
24013;BME280;12220;50.194;18.948;2023-05-09T08:29:23;102691.39;;;14.12;48.94
24013;BME280;12220;50.194;18.948;2023-05-09T08:31:33;102690.97;;;14.20;48.78
24013;BME280;12220;50.194;18.948;2023-05-09T08:33:35;102683.19;;;14.28;48.24
24013;BME280;12220;50.194;18.948;2023-05-09T08:35:36;102685.59;;;14.34;48.22
24013;BME280;12220;50.194;18.948;2023-05-09T08:37:37;102686.24;;;14.39;48.27
24013;BME280;12220;50.194;18.948;2023-05-09T08:39:48;102677.54;;;14.47;48.36
24013;BME280;12220;50.194;18.948;2023-05-09T08:41:51;102684.67;;;14.51;47.61
24013;BME280;12220;50.194;18.948;2023-05-09T08:43:54;102675.87;;;14.60;48.33
24013;BME280;12220;50.194;18.948;2023-05-09T08:46:02;102677.25;;;14.69;48.59
24013;BME280;12220;50.194;18.948;2023-05-09T08:48:06;102674.59;;;14.84;48.66
24013;BME280;12220;50.194;18.948;2023-05-09T08:50:08;102665.89;;;14.91;48.20
24013;BME280;12220;50.194;18.948;2023-05-09T08:52:14;102669.90;;;15.02;47.96
24013;BME280;12220;50.194;18.948;2023-05-09T08:54:20;102671.14;;;15.12;48.25
24013;BME280;12220;50.194;18.948;2023-05-09T08:56:22;102669.80;;;15.19;47.58
24013;BME280;12220;50.194;18.948;2023-05-09T08:58:24;102661.24;;;15.24;46.99
24013;BME280;12220;50.194;18.948;2023-05-09T09:00:26;102660.18;;;15.26;47.33
24013;BME280;12220;50.194;18.948;2023-05-09T09:02:32;102666.48;;;15.28;46.95
24013;BME280;12220;50.194;18.948;2023-05-09T09:04:34;102667.45;;;15.27;46.64
24013;BME280;12220;50.194;18.948;2023-05-09T09:06:39;102664.78;;;15.26;46.30
24013;BME280;12220;50.194;18.948;2023-05-09T09:08:41;102659.08;;;15.29;46.58
24013;BME280;12220;50.194;18.948;2023-05-09T09:10:43;102668.88;;;15.34;46.51
24013;BME280;12220;50.194;18.948;2023-05-09T09:12:50;102682.66;;;15.34;46.56
24013;BME280;12220;50.194;18.948;2023-05-09T09:14:56;102676.91;;;15.39;47.19
24013;BME280;12220;50.194;18.948;2023-05-09T09:17:00;102680.16;;;15.46;46.68
24013;BME280;12220;50.194;18.948;2023-05-09T09:19:12;102687.09;;;15.53;46.79
24013;BME280;12220;50.194;18.948;2023-05-09T09:21:17;102672.83;;;15.61;47.03
24013;BME280;12220;50.194;18.948;2023-05-09T09:23:28;102672.18;;;15.72;47.02
24013;BME280;12220;50.194;18.948;2023-05-09T09:25:30;102667.34;;;15.75;46.10
24013;BME280;12220;50.194;18.948;2023-05-09T09:27:31;102669.69;;;15.83;46.31
24013;BME280;12220;50.194;18.948;2023-05-09T09:29:33;102656.18;;;15.93;46.27
24013;BME280;12220;50.194;18.948;2023-05-09T09:31:44;102655.71;;;16.00;45.95
24013;BME280;12220;50.194;18.948;2023-05-09T09:33:47;102668.15;;;16.08;46.16
24013;BME280;12220;50.194;18.948;2023-05-09T09:35:52;102654.93;;;16.13;45.87
24013;BME280;12220;50.194;18.948;2023-05-09T09:37:57;102288.83;;;14.02;45.94
24013;BME280;12220;50.194;18.948;2023-05-09T09:39:59;102655.54;;;16.18;45.58
24013;BME280;12220;50.194;18.948;2023-05-09T09:42:10;102648.90;;;16.20;45.49
24013;BME280;12220;50.194;18.948;2023-05-09T09:44:16;102646.84;;;16.24;45.37
24013;BME280;12220;50.194;18.948;2023-05-09T09:46:18;102637.48;;;16.27;45.15
24013;BME280;12220;50.194;18.948;2023-05-09T09:48:24;102643.47;;;16.33;45.22
24013;BME280;12220;50.194;18.948;2023-05-09T09:50:26;102647.05;;;16.35;45.12
24013;BME280;12220;50.194;18.948;2023-05-09T09:52:27;102641.21;;;16.40;45.01
24013;BME280;12220;50.194;18.948;2023-05-09T09:54:30;102640.23;;;16.41;44.26
24013;BME280;12220;50.194;18.948;2023-05-09T09:59:17;102640.70;;;16.62;44.71
24013;BME280;12220;50.194;18.948;2023-05-09T10:01:15;102641.87;;;16.72;43.77
24013;BME280;12220;50.194;18.948;2023-05-09T10:03:17;102634.84;;;16.81;43.83
24013;BME280;12220;50.194;18.948;2023-05-09T10:05:25;102635.25;;;16.89;43.99
24013;BME280;12220;50.194;18.948;2023-05-09T10:07:32;102627.13;;;17.01;44.07
24013;BME280;12220;50.194;18.948;2023-05-09T10:09:36;102617.48;;;17.06;43.62
24013;BME280;12220;50.194;18.948;2023-05-09T10:11:40;102629.53;;;17.20;43.92
24013;BME280;12220;50.194;18.948;2023-05-09T10:13:42;102615.80;;;17.31;44.08
24013;BME280;12220;50.194;18.948;2023-05-09T10:15:44;102620.14;;;17.35;43.63
24013;BME280;12220;50.194;18.948;2023-05-09T10:17:53;102613.95;;;17.32;43.09
24013;BME280;12220;50.194;18.948;2023-05-09T10:19:55;102619.81;;;17.27;43.17
24013;BME280;12220;50.194;18.948;2023-05-09T10:22:04;102629.42;;;17.21;42.21
24013;BME280;12220;50.194;18.948;2023-05-09T10:24:07;102630.82;;;17.14;41.80
24013;BME280;12220;50.194;18.948;2023-05-09T10:26:18;102466.80;;;16.01;42.37
24013;BME280;12220;50.194;18.948;2023-05-09T10:28:27;102623.45;;;17.00;42.41
24013;BME280;12220;50.194;18.948;2023-05-09T10:30:35;102622.40;;;16.88;42.17
24013;BME280;12220;50.194;18.948;2023-05-09T10:34:59;102600.27;;;16.74;42.87
24013;BME280;12220;50.194;18.948;2023-05-09T10:37:02;102602.41;;;16.83;43.22
24013;BME280;12220;50.194;18.948;2023-05-09T10:39:06;102606.29;;;16.95;42.71
24013;BME280;12220;50.194;18.948;2023-05-09T10:41:09;102606.31;;;17.08;42.15
24013;BME280;12220;50.194;18.948;2023-05-09T10:43:13;102604.02;;;17.15;41.69
24013;BME280;12220;50.194;18.948;2023-05-09T10:45:15;102600.06;;;17.19;41.41
24013;BME280;12220;50.194;18.948;2023-05-09T10:47:21;102602.49;;;17.23;41.45
24013;BME280;12220;50.194;18.948;2023-05-09T10:49:23;102595.66;;;17.29;41.58
24013;BME280;12220;50.194;18.948;2023-05-09T10:51:24;102594.13;;;17.38;41.90
24013;BME280;12220;50.194;18.948;2023-05-09T10:55:49;102590.67;;;17.34;41.34
24013;BME280;12220;50.194;18.948;2023-05-09T10:58:44;102589.47;;;17.38;41.38
24013;BME280;12220;50.194;18.948;2023-05-09T11:00:23;102593.95;;;17.54;41.67
24013;BME280;12220;50.194;18.948;2023-05-09T11:02:25;102578.22;;;17.67;41.43
24013;BME280;12220;50.194;18.948;2023-05-09T11:04:32;102579.55;;;17.74;41.19
24013;BME280;12220;50.194;18.948;2023-05-09T11:08:50;102567.48;;;17.75;40.58
24013;BME280;12220;50.194;18.948;2023-05-09T11:11:06;102578.13;;;17.82;40.53